Time;durP1;ratioP1;P1;durP2;ratioP2;P2;SDS_P1;SDS_P2;PMS_P1;PMS_P2;Temp;Humidity;BMP_temperature;BMP_pressure;BME280_temperature;BME280_humidity;BME280_pressure;Samples;Min_cycle;Max_cycle;Signal;HPM_P1;HPM_P2
2022/03/03 00:01:55;;;;;;;16.10;12.13;;;;;;;3.10;60.99;101930.78;5259327;28;20108;-68
2022/03/03 00:04:26;;;;;;;17.92;13.10;;;;;;;3.26;61.62;101924.16;5259122;28;20029;-69
2022/03/03 00:06:57;;;;;;;17.85;13.13;;;;;;;3.10;62.02;101925.59;5262642;28;20435;-67
2022/03/03 00:09:29;;;;;;;15.73;11.68;;;;;;;3.00;61.55;101922.53;5260615;28;20064;-69
2022/03/03 00:12:00;;;;;;;16.55;11.75;;;;;;;2.94;61.25;101907.19;5259808;28;20036;-70
2022/03/03 00:14:32;;;;;;;13.90;11.05;;;;;;;2.95;61.28;101914.06;5252882;28;20204;-70
2022/03/03 00:17:03;;;;;;;18.00;12.50;;;;;;;2.83;61.30;101915.34;5256400;28;20028;-70
2022/03/03 00:19:35;;;;;;;17.63;12.38;;;;;;;2.82;62.15;101913.66;5259988;28;20441;-69
2022/03/03 00:22:06;;;;;;;16.40;12.55;;;;;;;2.81;63.56;101911.13;5263689;28;20037;-70
2022/03/03 00:24:37;;;;;;;16.27;13.30;;;;;;;2.80;63.79;101909.41;5258644;28;20025;-70
2022/03/03 00:27:09;;;;;;;15.63;11.77;;;;;;;2.75;63.86;101908.75;5264271;28;20495;-70
2022/03/03 00:29:40;;;;;;;21.13;12.02;;;;;;;2.72;63.92;101901.09;5260867;28;20040;-70
2022/03/03 00:32:12;;;;;;;17.90;13.40;;;;;;;2.73;64.32;101910.53;5260198;28;20079;-70
2022/03/03 00:34:43;;;;;;;19.35;12.93;;;;;;;2.60;63.68;101899.78;5263103;28;20060;-70
2022/03/03 00:37:14;;;;;;;17.75;13.43;;;;;;;2.75;64.51;101913.94;5263864;28;20413;-70
2022/03/03 00:39:46;;;;;;;20.35;13.40;;;;;;;2.68;64.70;101911.53;5263056;28;20017;-69
2022/03/03 00:42:17;;;;;;;17.17;12.80;;;;;;;2.63;63.86;101912.59;5261918;28;20020;-70
2022/03/03 00:44:48;;;;;;;17.40;13.68;;;;;;;2.57;63.12;101911.06;5264802;28;20532;-70
2022/03/03 00:47:19;;;;;;;21.17;13.52;;;;;;;2.58;63.57;101909.34;5262325;28;20115;-70
2022/03/03 00:49:51;;;;;;;17.92;12.63;;;;;;;2.50;63.32;101909.59;5267167;28;20126;-70
2022/03/03 00:52:22;;;;;;;16.35;12.85;;;;;;;2.47;63.61;101911.44;5267402;28;20029;-69
2022/03/03 00:54:53;;;;;;;17.33;12.80;;;;;;;2.40;65.24;101906.47;5261758;28;20044;-70
2022/03/03 00:57:24;;;;;;;16.85;13.10;;;;;;;2.34;65.24;101903.25;5264556;28;20052;-69
2022/03/03 00:59:56;;;;;;;16.63;12.57;;;;;;;2.33;65.03;101907.56;5267346;28;20096;-70
2022/03/03 01:02:27;;;;;;;18.88;13.00;;;;;;;2.34;65.67;101903.25;5264681;28;20535;-68
2022/03/03 01:04:58;;;;;;;16.20;12.85;;;;;;;2.31;64.54;101903.34;5266996;28;20485;-69
2022/03/03 01:07:30;;;;;;;19.02;13.63;;;;;;;2.19;64.85;101902.00;5264811;28;20509;-69
2022/03/03 01:10:02;;;;;;;18.48;13.27;;;;;;;2.15;65.18;101893.50;5267069;28;20477;-69
2022/03/03 01:12:33;;;;;;;16.63;13.38;;;;;;;2.18;66.75;101900.31;5265039;28;20039;-68
2022/03/03 01:15:07;;;;;;;18.10;13.95;;;;;;;2.24;67.51;101904.47;5268067;28;20025;-68
2022/03/03 01:17:38;;;;;;;17.30;13.23;;;;;;;2.21;67.23;101907.16;5263842;28;20025;-69
2022/03/03 01:20:10;;;;;;;17.88;13.77;;;;;;;2.10;65.97;101908.34;5268657;28;20258;-68
2022/03/03 01:22:41;;;;;;;17.90;14.07;;;;;;;2.07;65.97;101902.41;5263319;28;20493;-69
2022/03/03 01:25:13;;;;;;;17.38;14.02;;;;;;;2.05;67.04;101894.72;5266981;28;20063;-69
2022/03/03 01:27:45;;;;;;;16.20;13.73;;;;;;;2.06;65.74;101896.41;5266376;28;20032;-69
2022/03/03 01:30:16;;;;;;;19.67;14.30;;;;;;;2.01;66.81;101900.00;5267100;28;20118;-68
2022/03/03 01:32:48;;;;;;;17.80;13.32;;;;;;;2.00;66.19;101899.16;5264092;28;20108;-69
2022/03/03 01:35:19;;;;;;;20.02;14.82;;;;;;;2.01;67.23;101893.13;5266997;28;20032;-69
2022/03/03 01:37:50;;;;;;;18.35;14.18;;;;;;;1.96;67.98;101895.00;5264051;28;20036;-68
2022/03/03 01:40:23;;;;;;;16.95;13.52;;;;;;;1.94;67.49;101883.88;5267005;28;20028;-68
2022/03/03 01:42:55;;;;;;;23.75;15.68;;;;;;;1.89;67.59;101878.00;5264804;28;20025;-69
2022/03/03 01:45:26;;;;;;;17.98;14.63;;;;;;;1.81;67.81;101874.81;5267189;28;20035;-69
2022/03/03 01:47:57;;;;;;;19.92;14.88;;;;;;;1.79;67.83;101874.03;5263354;28;20457;-71
2022/03/03 01:50:29;;;;;;;19.13;14.93;;;;;;;1.72;68.82;101865.63;5265098;28;20025;-68
2022/03/03 01:53:00;;;;;;;19.50;14.63;;;;;;;1.74;70.83;101862.97;5267294;28;20371;-69
2022/03/03 01:55:32;;;;;;;19.77;14.60;;;;;;;1.68;69.43;101864.88;5266320;28;20143;-69
2022/03/03 01:58:05;;;;;;;21.27;14.80;;;;;;;1.65;69.05;101870.13;5264110;28;20060;-69
2022/03/03 02:00:36;;;;;;;18.33;14.55;;;;;;;1.56;69.27;101864.44;5263566;28;20477;-69
2022/03/03 02:03:07;;;;;;;18.80;14.75;;;;;;;1.58;70.15;101858.28;5265727;28;20029;-69
2022/03/03 02:05:38;;;;;;;18.95;14.18;;;;;;;1.63;70.32;101855.56;5266562;28;20064;-69
2022/03/03 02:08:10;;;;;;;18.60;14.68;;;;;;;1.65;70.91;101857.22;5263076;28;20477;-69
2022/03/03 02:10:41;;;;;;;20.63;14.93;;;;;;;1.58;69.76;101842.81;5265238;28;20053;-70
2022/03/03 02:13:13;;;;;;;21.30;15.32;;;;;;;1.63;69.97;101842.66;5260623;28;20124;-69
2022/03/03 02:15:52;;;;;;;19.10;14.70;;;;;;;1.64;70.17;101839.19;5265020;28;20032;-69
2022/03/03 02:18:24;;;;;;;19.58;14.23;;;;;;;1.65;70.77;101848.63;5263280;28;20033;-69
2022/03/03 02:20:55;;;;;;;19.02;14.30;;;;;;;1.52;69.59;101840.44;5263557;28;20031;-69
2022/03/03 02:23:26;;;;;;;19.30;14.35;;;;;;;1.52;70.23;101840.44;5267302;28;20066;-69
2022/03/03 02:25:58;;;;;;;20.50;15.32;;;;;;;1.52;70.42;101835.25;5263535;28;20028;-69
2022/03/03 02:28:29;;;;;;;24.73;15.15;;;;;;;1.52;71.21;101824.09;5264060;28;20116;-70
2022/03/03 02:31:01;;;;;;;21.58;15.15;;;;;;;1.49;71.27;101831.94;5261962;28;20082;-69
2022/03/03 02:33:32;;;;;;;17.67;14.68;;;;;;;1.46;71.58;101830.28;5262500;28;20558;-69
2022/03/03 02:36:24;;;;;;;20.92;15.43;;;;;;;1.60;70.70;101825.53;5262622;28;20398;-69
2022/03/03 02:38:58;;;;;;;20.98;15.55;;;;;;;1.43;70.70;101827.78;5263861;28;20020;-69
2022/03/03 02:41:29;;;;;;;19.10;14.65;;;;;;;1.38;71.07;101829.69;5265171;28;20035;-69
2022/03/03 02:44:02;;;;;;;22.08;15.32;;;;;;;1.34;71.07;101831.50;5265417;28;20033;-69
2022/03/03 02:46:33;;;;;;;19.83;14.52;;;;;;;1.41;71.39;101837.34;5262465;28;20018;-70
2022/03/03 02:49:05;;;;;;;19.33;14.90;;;;;;;1.29;71.24;101835.97;5264158;28;20086;-68
2022/03/03 02:51:37;;;;;;;20.52;15.18;;;;;;;1.27;72.22;101836.91;5263926;28;20470;-69
2022/03/03 02:54:08;;;;;;;23.13;15.75;;;;;;;1.23;71.60;101832.72;5264261;28;20028;-69
2022/03/03 02:59:30;;;;;;;21.48;15.20;;;;;;;1.22;71.88;101821.56;5265784;28;20025;-69
2022/03/03 03:02:01;;;;;;;18.77;14.77;;;;;;;1.23;71.63;101830.13;5262997;28;20012;-69
2022/03/03 03:04:32;;;;;;;19.67;15.10;;;;;;;1.20;72.39;101829.31;5264655;28;20032;-70
2022/03/03 03:07:03;;;;;;;20.55;14.88;;;;;;;1.15;72.88;101826.06;5266102;28;20020;-69
2022/03/03 03:09:35;;;;;;;27.45;15.48;;;;;;;1.07;73.25;101820.28;5260943;28;20391;-69
2022/03/03 03:12:06;;;;;;;22.52;15.38;;;;;;;1.14;73.99;101826.09;5262139;28;20104;-69
2022/03/03 03:14:38;;;;;;;19.40;14.25;;;;;;;1.12;73.03;101817.56;5263179;28;20056;-69
2022/03/03 03:17:09;;;;;;;20.60;14.35;;;;;;;1.10;73.91;101829.63;5264020;28;20016;-68
2022/03/03 03:19:41;;;;;;;21.20;16.25;;;;;;;1.09;73.34;101820.22;5264298;28;20060;-69
2022/03/03 03:22:12;;;;;;;19.23;14.25;;;;;;;1.03;73.37;101823.84;5261698;28;20449;-68
2022/03/03 03:24:43;;;;;;;20.30;15.10;;;;;;;1.05;73.90;101822.03;5264250;28;20024;-68
2022/03/03 03:27:14;;;;;;;19.25;14.98;;;;;;;1.01;73.58;101823.03;5265907;28;20024;-70
2022/03/03 03:29:46;;;;;;;19.23;14.82;;;;;;;0.98;73.57;101810.22;5261456;28;20024;-68
2022/03/03 03:32:17;;;;;;;19.40;14.00;;;;;;;1.01;74.12;101811.88;5264326;28;20439;-68
2022/03/03 03:34:48;;;;;;;19.80;14.70;;;;;;;0.95;73.42;101812.91;5265825;28;20037;-70
2022/03/03 03:37:20;;;;;;;19.92;14.77;;;;;;;0.89;73.52;101806.16;5258623;28;20112;-68
2022/03/03 03:39:51;;;;;;;22.17;15.82;;;;;;;0.87;73.85;101812.25;5261709;28;20564;-68
2022/03/03 03:42:23;;;;;;;19.95;15.25;;;;;;;0.87;74.06;101807.97;5264442;28;20028;-68
2022/03/03 03:44:54;;;;;;;22.73;15.52;;;;;;;0.87;73.67;101807.09;5262888;28;20017;-67
2022/03/03 03:47:25;;;;;;;17.02;14.55;;;;;;;0.88;74.10;101801.06;5263045;28;20039;-68
2022/03/03 03:49:57;;;;;;;20.10;14.40;;;;;;;0.83;74.55;101801.19;5262992;28;20087;-67
2022/03/03 03:52:29;;;;;;;18.90;14.80;;;;;;;0.87;75.15;101797.66;5260268;28;20036;-69
2022/03/03 03:55:00;;;;;;;22.52;15.07;;;;;;;0.88;75.42;101801.91;5263672;28;20055;-68
2022/03/03 03:57:32;;;;;;;23.02;15.10;;;;;;;0.90;74.53;101786.38;5263454;28;20176;-69
2022/03/03 04:00:08;;;;;;;24.35;15.65;;;;;;;0.87;75.34;101789.03;5262186;28;20028;-69
2022/03/03 04:02:40;;;;;;;21.48;16.00;;;;;;;0.84;77.07;101787.41;5276271;28;20029;-67
2022/03/03 04:05:13;;;;;;;21.98;16.00;;;;;;;0.89;77.09;101792.44;5264971;28;20033;-68
2022/03/03 04:07:44;;;;;;;21.90;15.25;;;;;;;0.77;76.23;101795.38;5264496;28;20394;-69
2022/03/03 04:10:15;;;;;;;18.08;13.88;;;;;;;0.75;76.15;101795.41;5261522;28;20040;-69
2022/03/03 04:12:47;;;;;;;20.20;14.95;;;;;;;0.79;76.92;101793.56;5259942;28;20060;-69
2022/03/03 04:15:18;;;;;;;20.92;15.75;;;;;;;0.68;76.10;101799.03;5265035;28;20070;-69
2022/03/03 04:17:49;;;;;;;20.30;15.68;;;;;;;0.68;76.39;101791.28;5264797;28;20057;-70
2022/03/03 04:20:22;;;;;;;21.33;15.60;;;;;;;0.75;77.36;101789.41;5256619;28;20075;-68
2022/03/03 04:22:54;;;;;;;21.67;15.18;;;;;;;0.72;77.13;101774.88;5260759;28;20646;-69
2022/03/03 04:25:25;;;;;;;21.08;15.32;;;;;;;0.70;77.06;101780.06;5268284;28;20028;-67
2022/03/03 04:27:56;;;;;;;22.73;15.23;;;;;;;0.65;75.88;101781.09;5265335;28;20016;-69
2022/03/03 04:30:28;;;;;;;22.75;14.82;;;;;;;0.64;76.37;101775.06;5267679;28;20032;-68
2022/03/03 04:32:59;;;;;;;20.65;15.07;;;;;;;0.68;77.00;101766.38;5266122;28;20519;-69
2022/03/03 04:35:31;;;;;;;20.70;15.05;;;;;;;0.58;76.03;101770.09;5265786;28;20403;-69
2022/03/03 04:38:02;;;;;;;22.08;15.55;;;;;;;0.61;76.46;101769.19;5268935;28;20425;-69
2022/03/03 04:40:33;;;;;;;19.83;15.13;;;;;;;0.61;76.68;101764.88;5264684;28;20139;-69
2022/03/03 04:43:05;;;;;;;21.45;14.30;;;;;;;0.56;76.82;101758.97;5264540;28;20074;-67
2022/03/03 04:45:36;;;;;;;22.13;15.48;;;;;;;0.54;77.12;101758.19;5269615;28;20024;-68
2022/03/03 04:48:08;;;;;;;27.02;16.15;;;;;;;0.50;76.22;101759.16;5265339;28;20095;-68
2022/03/03 04:50:40;;;;;;;22.60;15.15;;;;;;;0.47;77.44;101752.34;5268318;28;20074;-68
2022/03/03 04:53:11;;;;;;;22.67;14.98;;;;;;;0.53;78.10;101753.94;5266729;28;20032;-68
2022/03/03 04:55:43;;;;;;;18.60;14.70;;;;;;;0.53;77.40;101751.34;5267953;28;20477;-67
2022/03/03 04:58:14;;;;;;;20.83;15.23;;;;;;;0.55;77.27;101752.13;5266354;28;21421;-67
2022/03/03 05:00:46;;;;;;;19.42;14.05;;;;;;;0.47;77.39;101751.50;5262010;28;20028;-68
2022/03/03 05:03:17;;;;;;;21.50;15.38;;;;;;;0.46;78.31;101744.69;5264499;28;20028;-68
2022/03/03 05:05:49;;;;;;;20.02;15.55;;;;;;;0.45;77.24;101759.28;5266817;28;20028;-68
2022/03/03 05:08:20;;;;;;;21.75;15.18;;;;;;;0.48;77.28;101748.03;5265716;28;20024;-69
2022/03/03 05:10:51;;;;;;;20.08;14.50;;;;;;;0.55;76.76;101759.03;5263777;28;20028;-67
2022/03/03 05:13:22;;;;;;;21.42;15.45;;;;;;;0.45;77.81;101756.69;5265733;28;20490;-68
2022/03/03 05:15:54;;;;;;;21.75;14.93;;;;;;;0.51;77.48;101768.59;5270091;28;20028;-68
2022/03/03 05:18:26;;;;;;;22.45;15.55;;;;;;;0.51;77.47;101771.16;5262572;28;20502;-69
2022/03/03 05:20:57;;;;;;;20.67;14.82;;;;;;;0.42;77.42;101764.53;5263592;28;20031;-68
2022/03/03 05:23:29;;;;;;;24.40;15.35;;;;;;;0.40;77.70;101761.16;5265619;28;20029;-68
2022/03/03 05:26:00;;;;;;;23.15;15.13;;;;;;;0.31;77.05;101768.31;5267381;28;20025;-67
2022/03/03 05:28:32;;;;;;;21.42;14.55;;;;;;;0.35;78.74;101757.84;5265934;28;20110;-68
2022/03/03 05:31:03;;;;;;;19.80;14.40;;;;;;;0.35;78.33;101763.00;5262137;28;20028;-70
2022/03/03 05:33:35;;;;;;;22.17;15.27;;;;;;;0.35;79.37;101762.16;5264189;28;20068;-67
2022/03/03 05:36:09;;;;;;;24.40;15.57;;;;;;;0.31;78.80;101761.41;5268299;28;20035;-67
2022/03/03 05:38:40;;;;;;;21.55;15.45;;;;;;;0.24;78.70;101765.88;5262737;28;20021;-68
2022/03/03 05:41:11;;;;;;;20.23;14.05;;;;;;;0.22;78.86;101770.22;5267020;28;20021;-68
2022/03/03 05:43:43;;;;;;;21.05;15.32;;;;;;;0.16;79.05;101767.81;5266236;28;20028;-69
2022/03/03 05:46:15;;;;;;;20.35;15.18;;;;;;;0.21;79.24;101770.25;5261136;28;20068;-69
2022/03/03 05:48:48;;;;;;;21.40;14.90;;;;;;;0.16;78.98;101774.72;5265213;28;20039;-67
2022/03/03 05:51:20;;;;;;;20.02;15.18;;;;;;;0.16;79.54;101774.72;5266874;28;20028;-68
2022/03/03 05:53:51;;;;;;;20.13;15.30;;;;;;;0.11;79.10;101772.22;5264368;28;20028;-68
2022/03/03 05:56:23;;;;;;;19.40;14.60;;;;;;;0.08;78.52;101769.75;5263940;28;20060;-69
2022/03/03 05:58:58;;;;;;;23.10;15.30;;;;;;;0.12;78.83;101768.78;5289243;22;20056;-71
2022/03/03 06:01:31;;;;;;;26.33;16.15;;;;;;;0.04;79.43;101769.84;5271023;28;20046;-71
2022/03/03 06:04:03;;;;;;;26.60;14.85;;;;;;;0.08;80.72;101756.88;5276473;28;20074;-71
2022/03/03 06:06:36;;;;;;;23.15;14.95;;;;;;;-0.02;79.40;101758.84;5274565;28;20028;-70
2022/03/03 06:09:15;;;;;;;25.60;14.85;;;;;;;0.07;79.54;101765.47;5254374;28;20056;-70
2022/03/03 06:11:57;;;;;;;29.88;16.15;;;;;;;0.00;79.85;101758.81;5254774;28;20028;-70
2022/03/03 06:14:37;;;;;;;27.83;15.80;;;;;;;0.04;80.02;101757.84;5254831;28;20519;-70
2022/03/03 06:17:09;;;;;;;25.67;14.90;;;;;;;-0.09;80.49;101752.16;5252162;28;20661;-70
2022/03/03 06:19:41;;;;;;;20.25;15.35;;;;;;;-0.13;80.24;101757.44;5253358;28;20676;-70
2022/03/03 06:22:13;;;;;;;24.70;15.10;;;;;;;-0.07;80.35;101752.97;5254687;28;20024;-71
2022/03/03 06:24:44;;;;;;;23.17;15.32;;;;;;;-0.05;80.79;101750.34;5255001;28;20260;-70
2022/03/03 06:27:16;;;;;;;22.63;15.45;;;;;;;-0.12;80.51;101748.81;5253392;28;20029;-71
2022/03/03 06:29:47;;;;;;;31.95;16.33;;;;;;;-0.11;81.19;101759.09;5255131;28;20505;-70
2022/03/03 06:32:19;;;;;;;21.23;15.27;;;;;;;-0.12;80.69;101752.22;5253554;28;20025;-71
2022/03/03 06:34:50;;;;;;;21.77;15.23;;;;;;;-0.13;80.89;101765.16;5251987;28;20445;-71
2022/03/03 06:37:21;;;;;;;19.23;14.38;;;;;;;-0.12;81.26;101771.97;5253583;28;20501;-70
2022/03/03 06:39:53;;;;;;;22.75;15.70;;;;;;;-0.12;81.12;101761.69;5254967;28;20032;-71
2022/03/03 06:42:24;;;;;;;22.25;14.35;;;;;;;-0.16;80.52;101766.06;5254522;28;20461;-71
2022/03/03 06:44:56;;;;;;;22.77;14.23;;;;;;;-0.19;80.33;101757.56;5253219;28;20020;-70
2022/03/03 06:47:27;;;;;;;22.02;14.15;;;;;;;-0.06;81.98;101771.84;5253699;28;20371;-71
2022/03/03 06:49:58;;;;;;;19.92;14.32;;;;;;;-0.11;80.49;101771.97;5252280;28;20024;-71
2022/03/03 06:52:33;;;;;;;20.88;14.68;;;;;;;-0.07;80.80;101780.47;5253987;28;20936;-70
2022/03/03 06:55:05;;;;;;;20.40;14.13;;;;;;;-0.14;80.65;101776.34;5251744;28;20036;-70
2022/03/03 06:57:38;;;;;;;21.25;14.68;;;;;;;-0.10;80.63;101775.38;5251298;28;20548;-70
2022/03/03 07:00:11;;;;;;;23.73;14.23;;;;;;;-0.10;81.34;101783.09;5251810;28;20504;-71
2022/03/03 07:02:43;;;;;;;21.00;14.13;;;;;;;-0.09;81.44;101789.94;5250385;28;20597;-71
2022/03/03 07:05:15;;;;;;;19.75;14.95;;;;;;;-0.09;80.78;101784.78;5254286;28;20107;-71
2022/03/03 07:07:48;;;;;;;21.67;15.15;;;;;;;0.01;80.79;101788.00;5253960;28;20029;-70
2022/03/03 07:10:25;;;;;;;22.30;14.90;;;;;;;0.10;80.66;101791.16;5252436;28;20028;-71
2022/03/03 07:12:57;;;;;;;22.85;14.75;;;;;;;0.17;80.18;101797.00;5254024;28;20346;-71
2022/03/03 07:15:28;;;;;;;23.23;14.73;;;;;;;0.13;79.67;101792.81;5253998;28;20040;-70
2022/03/03 07:18:12;;;;;;;20.63;14.68;;;;;;;0.28;79.35;101801.88;5253042;28;20079;-71
2022/03/03 07:20:57;;;;;;;21.30;14.57;;;;;;;0.27;79.64;101800.19;5253909;28;20033;-71
2022/03/03 07:23:53;;;;;;;18.83;13.95;;;;;;;0.33;78.70;101785.38;5253235;28;20142;-71
2022/03/03 07:26:25;;;;;;;22.02;14.70;;;;;;;0.30;79.04;101789.78;5253269;28;20065;-71
2022/03/03 07:29:00;;;;;;;22.40;16.20;;;;;;;0.36;79.10;101800.78;5254004;28;20067;-71
2022/03/03 07:31:40;;;;;;;22.35;15.73;;;;;;;0.44;79.52;101806.56;5248774;28;20400;-71
2022/03/03 07:34:16;;;;;;;24.10;15.68;;;;;;;0.45;78.84;101799.69;5249059;28;20033;-70
2022/03/03 07:36:48;;;;;;;21.08;15.43;;;;;;;0.51;78.30;101803.84;5251376;28;20033;-71
2022/03/03 07:39:30;;;;;;;21.15;15.00;;;;;;;0.70;77.66;101797.28;5254120;28;20143;-70
2022/03/03 07:42:01;;;;;;;21.77;15.43;;;;;;;0.80;76.57;101795.28;5253839;28;20021;-71
2022/03/03 07:44:34;;;;;;;19.02;14.35;;;;;;;0.83;76.94;101801.19;5251934;28;20572;-70
2022/03/03 07:47:09;;;;;;;23.48;15.93;;;;;;;0.99;76.51;101803.34;5252954;28;20029;-72
2022/03/03 07:49:42;;;;;;;21.33;14.48;;;;;;;1.05;76.45;101801.41;5253263;28;20404;-71
2022/03/03 07:52:13;;;;;;;26.00;14.73;;;;;;;1.19;75.17;101794.09;5253027;28;20439;-71
2022/03/03 07:54:45;;;;;;;21.05;14.65;;;;;;;1.36;73.45;101798.72;5252953;28;20029;-71
2022/03/03 07:57:17;;;;;;;21.30;14.27;;;;;;;1.32;74.25;101789.38;5252528;28;20119;-71
2022/03/03 07:59:56;;;;;;;26.42;14.65;;;;;;;1.53;73.44;101803.38;5256443;28;20029;-71
2022/03/03 08:02:31;;;;;;;18.13;13.15;;;;;;;1.69;72.15;101807.16;5257444;28;20040;-71
2022/03/03 08:05:05;;;;;;;20.52;13.65;;;;;;;1.75;71.64;101798.38;5256696;28;20381;-70
2022/03/03 08:07:41;;;;;;;20.38;14.63;;;;;;;1.93;71.49;101799.47;5257681;28;20028;-70
2022/03/03 08:10:15;;;;;;;22.88;14.25;;;;;;;2.04;70.28;101802.53;5257207;28;20244;-70
2022/03/03 08:12:51;;;;;;;20.13;13.88;;;;;;;2.20;69.33;101800.31;5256587;28;20025;-71
2022/03/03 08:15:22;;;;;;;18.80;13.55;;;;;;;2.26;69.63;101800.06;5255812;28;20037;-71
2022/03/03 08:17:54;;;;;;;18.75;13.98;;;;;;;2.33;68.22;101798.13;5257550;28;20025;-70
2022/03/03 08:20:25;;;;;;;19.50;14.13;;;;;;;2.43;68.60;101794.34;5256996;28;20029;-71
2022/03/03 08:22:59;;;;;;;17.02;12.98;;;;;;;2.59;67.58;101790.28;5255359;28;20291;-70
2022/03/03 08:25:32;;;;;;;19.65;13.50;;;;;;;2.68;68.39;101787.34;5256198;28;20025;-70
2022/03/03 08:28:06;;;;;;;20.17;13.35;;;;;;;2.93;64.71;101791.63;5257612;28;20102;-71
2022/03/03 08:30:37;;;;;;;18.35;13.32;;;;;;;3.03;64.07;101786.94;5256063;28;20021;-71
2022/03/03 08:33:17;;;;;;;20.73;13.98;;;;;;;3.17;64.74;101790.69;5254841;28;20020;-71
2022/03/03 08:35:54;;;;;;;17.60;13.00;;;;;;;3.25;63.24;101798.16;5253352;28;20021;-71
2022/03/03 08:38:34;;;;;;;20.83;14.50;;;;;;;3.35;62.26;101791.72;5254673;28;20070;-71
2022/03/03 08:41:05;;;;;;;18.15;14.10;;;;;;;3.46;60.72;101791.28;5256287;28;20501;-71
2022/03/03 08:43:41;;;;;;;19.52;13.82;;;;;;;3.62;61.03;101794.94;5256196;28;20037;-70
2022/03/03 08:46:20;;;;;;;18.17;13.45;;;;;;;3.76;60.69;101794.41;5255531;28;20500;-71
2022/03/03 08:48:53;;;;;;;18.48;13.07;;;;;;;3.74;59.96;101792.75;5254742;28;20052;-71
2022/03/03 08:51:25;;;;;;;20.05;13.48;;;;;;;3.91;60.38;101808.47;5256798;28;20025;-71
2022/03/03 08:53:57;;;;;;;19.95;13.70;;;;;;;3.95;59.79;101809.19;5254127;28;20029;-71
2022/03/03 08:56:28;;;;;;;18.33;13.02;;;;;;;3.99;59.92;101795.19;5257054;28;20534;-72
2022/03/03 08:59:00;;;;;;;18.75;12.73;;;;;;;4.14;57.47;101797.97;5256172;28;20178;-71
2022/03/03 09:01:31;;;;;;;16.95;12.75;;;;;;;4.30;57.28;101797.31;5256085;28;20485;-71
2022/03/03 09:04:03;;;;;;;18.50;12.82;;;;;;;4.39;56.87;101796.91;5249312;28;20048;-71
2022/03/03 09:06:34;;;;;;;18.85;12.80;;;;;;;4.45;56.14;101793.22;5253340;28;20025;-71
2022/03/03 09:09:05;;;;;;;17.10;12.18;;;;;;;4.56;56.88;101807.41;5253997;28;20051;-71
2022/03/03 09:11:38;;;;;;;19.58;13.48;;;;;;;4.71;55.31;101805.88;5252975;28;20382;-72
2022/03/03 09:14:11;;;;;;;18.00;12.73;;;;;;;4.89;55.21;101804.22;5251151;28;20037;-71
2022/03/03 09:16:42;;;;;;;18.65;12.00;;;;;;;4.95;54.38;101801.31;5255303;28;20025;-71
2022/03/03 09:19:13;;;;;;;18.70;12.50;;;;;;;5.12;53.05;101803.16;5253352;28;20466;-71
2022/03/03 09:21:45;;;;;;;19.73;12.13;;;;;;;5.21;52.49;101801.88;5244519;28;20033;-72
2022/03/03 09:24:16;;;;;;;18.60;12.55;;;;;;;5.30;52.76;101794.50;5251058;28;20044;-71
2022/03/03 09:26:47;;;;;;;16.80;11.80;;;;;;;5.48;52.32;101787.56;5253054;28;20029;-71
2022/03/03 09:29:19;;;;;;;18.08;12.25;;;;;;;5.64;50.06;101782.44;5252958;28;20021;-72
2022/03/03 09:31:50;;;;;;;14.88;11.38;;;;;;;5.72;51.43;101784.66;5254890;28;20031;-72
2022/03/03 09:34:23;;;;;;;15.75;11.95;;;;;;;5.86;50.36;101770.06;5249368;28;20021;-71
2022/03/03 09:36:56;;;;;;;16.75;12.07;;;;;;;6.02;49.60;101778.00;5252779;28;20068;-72
2022/03/03 09:39:27;;;;;;;17.40;11.63;;;;;;;6.02;49.22;101778.00;5255396;28;20523;-72
2022/03/03 09:41:58;;;;;;;18.33;11.60;;;;;;;6.18;48.46;101777.19;5254712;28;20103;-72
2022/03/03 09:44:30;;;;;;;16.63;12.65;;;;;;;6.21;48.12;101777.03;5254113;28;20032;-72
2022/03/03 09:47:02;;;;;;;17.42;11.82;;;;;;;6.21;48.80;101784.81;5254584;28;20462;-71
2022/03/03 09:49:34;;;;;;;18.10;11.50;;;;;;;6.40;47.51;101774.31;5253550;28;20452;-72
2022/03/03 09:52:22;;;;;;;19.83;12.00;;;;;;;6.54;48.76;101769.22;5252163;28;20119;-71
2022/03/03 09:54:57;;;;;;;15.60;11.30;;;;;;;6.73;48.09;101769.06;5249069;28;20151;-71
2022/03/03 09:57:28;;;;;;;16.58;11.45;;;;;;;6.79;46.89;101768.75;5248233;28;20059;-71
2022/03/03 10:00:03;;;;;;;15.65;11.95;;;;;;;7.01;46.66;101774.47;5249519;28;20037;-71
2022/03/03 10:02:57;;;;;;;14.45;11.23;;;;;;;7.12;45.49;101775.63;5249576;28;20063;-71
2022/03/03 10:05:36;;;;;;;17.13;11.57;;;;;;;7.18;43.68;101775.31;5253103;28;20029;-71
2022/03/03 10:08:10;;;;;;;14.68;10.90;;;;;;;7.27;44.72;101782.59;5252523;28;20017;-72
2022/03/03 10:10:48;;;;;;;17.83;11.52;;;;;;;7.40;44.54;101774.94;5247048;28;20056;-72
2022/03/03 10:13:20;;;;;;;15.75;11.57;;;;;;;7.42;44.82;101766.09;5252654;28;20055;-71
2022/03/03 10:15:55;;;;;;;16.38;10.65;;;;;;;7.54;43.22;101764.59;5253681;28;20021;-71
2022/03/03 10:18:26;;;;;;;14.95;11.27;;;;;;;7.67;43.90;101772.53;5254219;28;20434;-71
2022/03/03 10:21:02;;;;;;;15.93;10.90;;;;;;;7.81;42.85;101762.16;5247858;28;20135;-72
2022/03/03 10:23:35;;;;;;;19.23;11.63;;;;;;;7.79;43.93;101766.59;5247967;28;20104;-72
2022/03/03 10:26:07;;;;;;;;;;;;;;;8.29;43.85;101760.97;5255031;28;20046;-72
2022/03/03 10:28:39;;;;;;;15.32;10.57;;;;;;;8.18;42.55;101762.56;5251521;28;19916;-71
2022/03/03 10:31:16;;;;;;;14.40;11.65;;;;;;;8.17;42.21;101753.06;5253477;28;20025;-71
2022/03/03 10:33:49;;;;;;;15.50;11.05;;;;;;;8.41;41.37;101754.22;5251192;28;20035;-71
2022/03/03 10:36:23;;;;;;;16.13;11.10;;;;;;;8.55;40.46;101755.97;5250279;28;20031;-72
2022/03/03 10:39:03;;;;;;;14.93;11.00;;;;;;;8.72;41.07;101749.72;5253478;28;20166;-72
2022/03/03 10:41:46;;;;;;;13.35;10.68;;;;;;;8.87;40.43;101753.13;5252303;28;20021;-71
2022/03/03 10:44:36;;;;;;;13.63;10.88;;;;;;;9.06;39.59;101750.19;5252758;28;20137;-72
2022/03/03 10:47:19;;;;;;;14.70;10.57;;;;;;;9.04;39.65;101745.06;5254302;28;20146;-71
2022/03/03 10:49:53;;;;;;;14.13;11.15;;;;;;;8.92;39.95;101746.69;5252952;28;20112;-71
2022/03/03 10:52:27;;;;;;;14.75;11.45;;;;;;;9.04;38.98;101747.66;5252689;28;20052;-72
2022/03/03 10:55:00;;;;;;;16.02;10.73;;;;;;;9.17;38.89;101730.28;5251199;28;20056;-72
2022/03/03 10:57:46;;;;;;;13.45;10.48;;;;;;;9.44;38.75;101735.47;5248323;28;20071;-76
2022/03/03 11:00:20;;;;;;;14.35;9.30;;;;;;;9.46;36.65;101738.81;5252465;28;20128;-72
2022/03/03 11:02:54;;;;;;;12.57;9.98;;;;;;;9.47;37.33;101737.91;5247932;28;20032;-71
2022/03/03 11:05:27;;;;;;;12.07;9.60;;;;;;;9.62;37.81;101732.56;5247872;28;20170;-71
2022/03/03 11:07:59;;;;;;;11.32;9.85;;;;;;;9.77;36.33;101738.56;5246851;28;20490;-72
2022/03/03 11:10:31;;;;;;;12.13;9.38;;;;;;;9.82;34.45;101724.22;5251816;28;20033;-71
2022/03/03 11:13:02;;;;;;;12.18;8.80;;;;;;;9.88;34.45;101739.50;5250282;28;20448;-72
2022/03/03 11:15:34;;;;;;;12.45;9.07;;;;;;;9.96;35.46;101736.38;5252652;28;20478;-72
2022/03/03 11:18:05;;;;;;;13.00;8.98;;;;;;;9.95;33.72;101745.16;5251820;28;20029;-72
2022/03/03 11:20:37;;;;;;;11.48;9.10;;;;;;;9.85;35.20;101737.13;5251784;28;20170;-71
2022/03/03 11:23:08;;;;;;;13.93;9.20;;;;;;;9.90;34.59;101744.66;5250684;28;20385;-72
2022/03/03 11:25:41;;;;;;;13.15;9.07;;;;;;;10.02;34.06;101732.50;5251561;28;20037;-72
2022/03/03 11:28:14;;;;;;;11.95;9.00;;;;;;;10.16;34.17;101727.16;5252459;28;20067;-72
2022/03/03 11:30:46;;;;;;;11.00;8.90;;;;;;;10.18;33.61;101730.50;5253200;28;20044;-72
2022/03/03 11:33:27;;;;;;;14.50;9.00;;;;;;;10.32;34.18;101722.56;5251469;28;20052;-72
2022/03/03 11:36:01;;;;;;;11.23;8.68;;;;;;;10.41;35.03;101710.59;5252002;28;21356;-72
2022/03/03 11:38:54;;;;;;;11.07;8.95;;;;;;;10.69;33.90;101714.75;5252832;28;20032;-71
2022/03/03 11:41:46;;;;;;;11.50;9.15;;;;;;;10.93;35.24;101718.22;5251951;28;20025;-72
2022/03/03 11:44:30;;;;;;;11.55;9.05;;;;;;;11.00;34.32;101708.13;5253747;28;20386;-71
2022/03/03 11:47:16;;;;;;;13.45;9.85;;;;;;;10.91;35.27;101699.16;5252291;28;20044;-72